Capitol Logistics 234


KMIA
Miami International Airport
Miami, Florida, US
KPHX
Phoenix Sky Harbor International Airport
Phoenix, Arizona, US

Route Details

Aircraft Information
Primary: Boeing 767-300BDSF
Backup: Not Available
Route Data
Distance: 1723nm
Sched. Duration: 5h 29m
Avg. Duration: 4h 48m (-82m)
Times Flown: 4
Recm'd Route: WINCO2 WINCO CHRRI DOLIE Y280 LEV J86 ELP DRRVR PINNG1
Planned Altitude: 32,000ft
Origin Wx: KMIA 170953Z 00000KT 10SM FEW049 FEW250 12/08 A3005 RMK AO2 SLP175 T01170078 $
Dest. Wx: KPHX 170951Z 00000KT 10SM CLR 09/M06 A3005 RMK AO2 SLP168 T00941056 $
Notes:

Financial History
Total Freight: 398,673lbs
Average Load: 99,668lbs/flt
Fuel Used: 221,104lbs
Avg. Fuel Used: 55,276lbs/flt
Fuel Expense: $271,958
Avg. Fuel Expense: $67,989
Avg. Fuel Cost: $1.23/lbs
Total Gross Income: $594,114
Pilot Pay: $576
Total Expenses: $64,372
Total Revenue: $254,666
Average Revenue: $148,528.54